• Join FlightAware (Why Join?)
  • Login
  • US Flag 
02:40AM EDT


 

Airport Tracker/Info


-or-


 

Live Flight TrackerFlight Track Log ✈ ASQ5745 ✈ 11-Jun-2013 ✈ KDAY - KORD

Flight Track Log - Related Links

Times and Time Zones

All times are in EDT time to prevent confusion due to time zone crossing. See the ASQ5745 flight status page for this flight to view local times or setup timezone preferences in your user account.

Time Position Orientation Groundspeed Altitude Reporting Facility
EDT Latitude Longitude Course Direction KTS MPH feet Rate Location/Type
07:07PM 39.8964 -84.2442 323° Northwest 141 162 1,500  Level Indianapolis Center
07:08PM 39.9147 -84.3042 292° West 191 220 3,500 1,920 Climbing Indianapolis Center
07:09PM 39.9425 -84.3236 332° Northwest 224 258 4,500 1,800 Climbing Indianapolis Center
07:09PM 39.9733 -84.3481 329° Northwest 226 260 5,400 2,040 Climbing Indianapolis Center
07:10PM 40.0361 -84.4003 328° Northwest 253 291 7,800 2,460 Climbing Indianapolis Center
07:11PM 40.1247 -84.4246 323° Northwest  Level FlightAware Approximate
07:11PM 40.1000 -84.4525 328° Northwest 264 304 10,500  Level Indianapolis Center
07:12PM 40.1801 -84.4800 323° Northwest  Level FlightAware Approximate
07:13PM 40.2355 -84.5354 323° Northwest  Level FlightAware Approximate
07:13PM 40.1633 -84.5056 327° Northwest 267 307 12,300  Level Indianapolis Center
07:14PM 40.2333 -84.5647 327° Northwest 288 331 13,900 1,620 Climbing Indianapolis Center
07:15PM 40.3067 -84.6186 331° Northwest 301 346 15,700 1,980 Climbing Indianapolis Center
07:16PM 40.4097 -84.6208 359° North 310 357 18,000 1,740 Climbing Indianapolis Center
07:17PM 40.4956 -84.6192 North 308 354 19,300 1,080 Climbing Indianapolis Center
07:18PM 40.5869 -84.6139 North 321 369 20,300 720 Climbing Indianapolis Center
07:19PM 40.6828 -84.6133 360° North 339 390 20,800 480 Climbing Indianapolis Center
07:20PM 40.7678 -84.6650 335° Northwest 346 398 21,400 660 Climbing Indianapolis Center
07:20PM 40.8008 -84.6958 325° Northwest 340 391 21,800 420 Climbing Chicago Center
07:21PM 40.8808 -84.7703 325° Northwest 348 400 22,000 60 Climbing Chicago Center
07:22PM 40.9631 -84.8472 325° Northwest 358 412 22,000  Level Chicago Center
07:23PM 41.0453 -84.9222 325° Northwest 359 413 22,000  Level Chicago Center
07:24PM 41.1278 -84.9997 325° Northwest 362 417 22,000  Level Chicago Center
07:25PM 41.2267 -85.0972 323° Northwest 367 422 22,000  Level Chicago Center
07:26PM 41.2944 -85.1967 312° West 365 420 22,000  Level Chicago Center
07:27PM 41.3178 -85.3314 283° West 375 432 22,000  Level Chicago Center
07:28PM 41.3347 -85.4633 280° West 363 418 22,000  Level Chicago Center
07:29PM 41.3531 -85.5967 280° West 362 417 22,000  Level Chicago Center
07:30PM 41.3700 -85.7331 279° West 369 425 22,000  Level Chicago Center
07:32PM 41.3881 -85.8689 280° West 371 427 22,000  Level Chicago Center
07:33PM 41.4100 -86.0358 280° West 379 436 22,000  Level Chicago Center
07:34PM 41.4319 -86.1758 282° West 385 443 22,000 -180 Level Chicago Center
07:35PM 41.4781 -86.2994 297° West 374 430 21,700 -1,500 Descending Chicago Center
07:36PM 41.5219 -86.4172 296° West 358 412 19,000 -2,580 Descending Chicago Center
07:37PM 41.5656 -86.5361 296° West 356 410 16,400 -2,520 Descending Chicago Center
07:38PM 41.6067 -86.6511 296° West 347 399 13,800 -2,100 Descending Chicago Center
07:39PM 41.6564 -86.7714 299° West 336 387 12,100 -840 Descending Chicago Center
07:40PM 41.7419 -86.8031 345° North 332 382 12,100 -120 Level Chicago Center
07:41PM 41.8350 -86.8222 351° North 338 389 11,900 -780 Descending Chicago Center
07:42PM 41.9242 -86.8975 328° Northwest 326 375 10,500 -900 Descending Chicago Center
07:43PM 41.9497 -87.0128 287° West 325 374 10,100 -300 Descending Chicago Center
07:44PM 41.9692 -87.1272 283° West 321 369 10,000 -540 Descending Chicago Center
07:45PM 41.9819 -87.2236 280° West 264 304 9,100 -1,080 Descending Chicago Center
07:46PM 41.9828 -87.3178 271° West 256 295 7,800 -1,020 Descending Chicago Center
07:47PM 41.9828 -87.4361 270° West 265 305 7,000 -1,020 Descending Chicago Center
07:48PM 41.9836 -87.5336 271° West 265 305 5,700 -1,260 Descending Chicago Center
07:49PM 41.9839 -87.6272 270° West 256 295 4,400 -1,260 Descending Chicago Center